sensor_id;sensor_type;location;lat;lon;timestamp;temperature;humidity
23237;DHT22;11787;52.018;8.570;2023-01-05T00:00:04;11.00;99.90
23237;DHT22;11787;52.018;8.570;2023-01-05T00:02:30;11.00;99.90
23237;DHT22;11787;52.018;8.570;2023-01-05T00:04:55;11.00;99.90
23237;DHT22;11787;52.018;8.570;2023-01-05T00:07:21;11.00;99.90
23237;DHT22;11787;52.018;8.570;2023-01-05T00:09:46;10.90;99.90
23237;DHT22;11787;52.018;8.570;2023-01-05T00:12:12;10.90;99.90
23237;DHT22;11787;52.018;8.570;2023-01-05T00:14:56;10.90;99.90
23237;DHT22;11787;52.018;8.570;2023-01-05T00:17:51;10.90;99.90
23237;DHT22;11787;52.018;8.570;2023-01-05T00:23:57;10.90;99.90
23237;DHT22;11787;52.018;8.570;2023-01-05T00:26:22;10.90;99.90
23237;DHT22;11787;52.018;8.570;2023-01-05T00:28:48;10.90;99.90
23237;DHT22;11787;52.018;8.570;2023-01-05T00:31:14;10.90;99.90
23237;DHT22;11787;52.018;8.570;2023-01-05T00:33:39;10.90;99.90
23237;DHT22;11787;52.018;8.570;2023-01-05T00:36:09;10.90;99.90
23237;DHT22;11787;52.018;8.570;2023-01-05T00:38:34;10.80;99.90
23237;DHT22;11787;52.018;8.570;2023-01-05T00:41:00;10.70;99.90
23237;DHT22;11787;52.018;8.570;2023-01-05T00:43:25;10.60;99.90
23237;DHT22;11787;52.018;8.570;2023-01-05T00:45:51;10.60;99.90
23237;DHT22;11787;52.018;8.570;2023-01-05T00:48:17;10.60;99.90
23237;DHT22;11787;52.018;8.570;2023-01-05T00:54:04;10.40;99.90
23237;DHT22;11787;52.018;8.570;2023-01-05T00:56:29;10.30;99.90
23237;DHT22;11787;52.018;8.570;2023-01-05T00:58:55;10.20;99.90
23237;DHT22;11787;52.018;8.570;2023-01-05T01:01:21;10.20;99.90
23237;DHT22;11787;52.018;8.570;2023-01-05T01:07:08;10.10;99.90
23237;DHT22;11787;52.018;8.570;2023-01-05T01:09:34;10.00;99.90
23237;DHT22;11787;52.018;8.570;2023-01-05T01:12:00;10.00;99.90
23237;DHT22;11787;52.018;8.570;2023-01-05T01:14:26;10.00;99.90
23237;DHT22;11787;52.018;8.570;2023-01-05T01:16:52;10.10;99.90
23237;DHT22;11787;52.018;8.570;2023-01-05T01:19:20;10.10;99.90
23237;DHT22;11787;52.018;8.570;2023-01-05T01:21:46;10.10;99.90
23237;DHT22;11787;52.018;8.570;2023-01-05T01:24:15;10.10;99.90
23237;DHT22;11787;52.018;8.570;2023-01-05T01:26:41;10.00;99.90
23237;DHT22;11787;52.018;8.570;2023-01-05T01:29:07;10.10;99.90
23237;DHT22;11787;52.018;8.570;2023-01-05T01:31:33;10.10;99.90
23237;DHT22;11787;52.018;8.570;2023-01-05T01:34:00;10.10;99.90
23237;DHT22;11787;52.018;8.570;2023-01-05T01:36:25;10.10;99.90
23237;DHT22;11787;52.018;8.570;2023-01-05T01:42:14;10.10;99.90
23237;DHT22;11787;52.018;8.570;2023-01-05T01:47:41;10.20;99.90
23237;DHT22;11787;52.018;8.570;2023-01-05T01:50:28;10.20;99.90
23237;DHT22;11787;52.018;8.570;2023-01-05T01:53:08;10.20;99.90
23237;DHT22;11787;52.018;8.570;2023-01-05T01:55:35;10.20;99.90
23237;DHT22;11787;52.018;8.570;2023-01-05T01:58:03;10.20;99.90
23237;DHT22;11787;52.018;8.570;2023-01-05T02:00:29;10.30;99.90
23237;DHT22;11787;52.018;8.570;2023-01-05T02:02:55;10.30;99.90
23237;DHT22;11787;52.018;8.570;2023-01-05T02:05:29;10.30;99.90
23237;DHT22;11787;52.018;8.570;2023-01-05T02:07:55;10.30;99.90
23237;DHT22;11787;52.018;8.570;2023-01-05T02:18:52;10.30;99.90
23237;DHT22;11787;52.018;8.570;2023-01-05T02:27:38;10.40;99.90
23237;DHT22;11787;52.018;8.570;2023-01-05T02:30:39;10.30;99.90
23237;DHT22;11787;52.018;8.570;2023-01-05T02:36:52;10.30;99.90
23237;DHT22;11787;52.018;8.570;2023-01-05T02:39:52;10.30;99.90
23237;DHT22;11787;52.018;8.570;2023-01-05T02:42:23;10.30;99.90
23237;DHT22;11787;52.018;8.570;2023-01-05T02:44:49;10.20;99.90
23237;DHT22;11787;52.018;8.570;2023-01-05T02:49:51;10.20;99.90
23237;DHT22;11787;52.018;8.570;2023-01-05T02:52:20;10.20;99.90
23237;DHT22;11787;52.018;8.570;2023-01-05T02:54:51;10.20;99.90
23237;DHT22;11787;52.018;8.570;2023-01-05T03:00:45;10.10;99.90
23237;DHT22;11787;52.018;8.570;2023-01-05T03:08:41;10.00;99.90
23237;DHT22;11787;52.018;8.570;2023-01-05T03:11:11;10.10;99.90
23237;DHT22;11787;52.018;8.570;2023-01-05T03:14:02;10.00;99.90
23237;DHT22;11787;52.018;8.570;2023-01-05T03:16:35;10.00;99.90
23237;DHT22;11787;52.018;8.570;2023-01-05T03:19:05;9.90;99.90
23237;DHT22;11787;52.018;8.570;2023-01-05T03:21:50;9.90;99.90
23237;DHT22;11787;52.018;8.570;2023-01-05T03:24:36;9.90;99.90
23237;DHT22;11787;52.018;8.570;2023-01-05T03:27:20;9.90;99.90
23237;DHT22;11787;52.018;8.570;2023-01-05T03:30:05;9.90;99.90
23237;DHT22;11787;52.018;8.570;2023-01-05T03:32:54;9.90;99.90
23237;DHT22;11787;52.018;8.570;2023-01-05T03:35:41;9.90;99.90
23237;DHT22;11787;52.018;8.570;2023-01-05T03:38:22;9.90;99.90
23237;DHT22;11787;52.018;8.570;2023-01-05T03:40:51;9.90;99.90
23237;DHT22;11787;52.018;8.570;2023-01-05T03:43:18;9.90;99.90
23237;DHT22;11787;52.018;8.570;2023-01-05T03:45:49;9.90;99.90
23237;DHT22;11787;52.018;8.570;2023-01-05T03:48:16;9.90;99.90
23237;DHT22;11787;52.018;8.570;2023-01-05T03:50:41;9.90;99.90
23237;DHT22;11787;52.018;8.570;2023-01-05T03:53:07;9.90;99.90
23237;DHT22;11787;52.018;8.570;2023-01-05T03:55:33;9.90;99.90
23237;DHT22;11787;52.018;8.570;2023-01-05T03:57:58;9.90;99.90
23237;DHT22;11787;52.018;8.570;2023-01-05T04:00:24;9.90;99.90
23237;DHT22;11787;52.018;8.570;2023-01-05T04:02:50;9.90;99.90
23237;DHT22;11787;52.018;8.570;2023-01-05T04:05:16;9.90;99.90
23237;DHT22;11787;52.018;8.570;2023-01-05T04:07:42;9.90;99.90
23237;DHT22;11787;52.018;8.570;2023-01-05T04:10:08;9.90;99.90
23237;DHT22;11787;52.018;8.570;2023-01-05T04:12:33;9.90;99.90
23237;DHT22;11787;52.018;8.570;2023-01-05T04:15:01;9.90;99.90
23237;DHT22;11787;52.018;8.570;2023-01-05T04:17:26;9.90;99.90
23237;DHT22;11787;52.018;8.570;2023-01-05T04:19:52;9.90;99.90
23237;DHT22;11787;52.018;8.570;2023-01-05T04:22:18;10.00;99.90
23237;DHT22;11787;52.018;8.570;2023-01-05T04:24:43;9.90;99.90
23237;DHT22;11787;52.018;8.570;2023-01-05T04:27:09;9.90;99.90
23237;DHT22;11787;52.018;8.570;2023-01-05T04:29:34;9.90;99.90
23237;DHT22;11787;52.018;8.570;2023-01-05T04:32:00;9.90;99.90
23237;DHT22;11787;52.018;8.570;2023-01-05T04:34:25;9.90;99.90
23237;DHT22;11787;52.018;8.570;2023-01-05T04:36:51;9.90;99.90
23237;DHT22;11787;52.018;8.570;2023-01-05T04:39:17;9.90;99.90
23237;DHT22;11787;52.018;8.570;2023-01-05T04:41:42;9.90;99.90
23237;DHT22;11787;52.018;8.570;2023-01-05T04:44:08;9.90;99.90
23237;DHT22;11787;52.018;8.570;2023-01-05T04:46:34;9.90;99.90
23237;DHT22;11787;52.018;8.570;2023-01-05T04:52:21;9.90;99.90
23237;DHT22;11787;52.018;8.570;2023-01-05T04:54:47;9.90;99.90
23237;DHT22;11787;52.018;8.570;2023-01-05T04:57:13;9.90;99.90
23237;DHT22;11787;52.018;8.570;2023-01-05T04:59:38;9.90;99.90
23237;DHT22;11787;52.018;8.570;2023-01-05T05:02:04;9.90;99.90
23237;DHT22;11787;52.018;8.570;2023-01-05T05:04:29;9.90;99.90
23237;DHT22;11787;52.018;8.570;2023-01-05T05:06:55;9.90;99.90
23237;DHT22;11787;52.018;8.570;2023-01-05T05:09:20;9.90;99.90
23237;DHT22;11787;52.018;8.570;2023-01-05T05:11:46;9.90;99.90
23237;DHT22;11787;52.018;8.570;2023-01-05T05:14:12;9.90;99.90
23237;DHT22;11787;52.018;8.570;2023-01-05T05:16:37;9.90;99.90
23237;DHT22;11787;52.018;8.570;2023-01-05T05:19:03;9.90;99.90
23237;DHT22;11787;52.018;8.570;2023-01-05T05:21:28;9.90;99.90
23237;DHT22;11787;52.018;8.570;2023-01-05T05:23:54;9.90;99.90
23237;DHT22;11787;52.018;8.570;2023-01-05T05:26:19;9.90;99.90
23237;DHT22;11787;52.018;8.570;2023-01-05T05:32:07;9.80;99.90
23237;DHT22;11787;52.018;8.570;2023-01-05T05:34:33;9.80;99.90
23237;DHT22;11787;52.018;8.570;2023-01-05T05:36:58;9.90;99.90
23237;DHT22;11787;52.018;8.570;2023-01-05T05:39:24;9.80;99.90
23237;DHT22;11787;52.018;8.570;2023-01-05T05:41:49;9.80;99.90
23237;DHT22;11787;52.018;8.570;2023-01-05T05:44:15;9.90;99.90
23237;DHT22;11787;52.018;8.570;2023-01-05T05:46:41;9.80;99.90
23237;DHT22;11787;52.018;8.570;2023-01-05T05:49:06;9.90;99.90
23237;DHT22;11787;52.018;8.570;2023-01-05T05:51:33;9.90;99.90
23237;DHT22;11787;52.018;8.570;2023-01-05T05:53:59;9.90;99.90
23237;DHT22;11787;52.018;8.570;2023-01-05T05:56:24;9.90;99.90
23237;DHT22;11787;52.018;8.570;2023-01-05T05:58:50;9.90;99.90
23237;DHT22;11787;52.018;8.570;2023-01-05T06:01:16;9.90;99.90
23237;DHT22;11787;52.018;8.570;2023-01-05T06:03:41;9.90;99.90
23237;DHT22;11787;52.018;8.570;2023-01-05T06:06:07;9.80;99.90
23237;DHT22;11787;52.018;8.570;2023-01-05T06:08:32;9.90;99.90
23237;DHT22;11787;52.018;8.570;2023-01-05T06:10:58;9.90;99.90
23237;DHT22;11787;52.018;8.570;2023-01-05T06:13:24;9.90;99.90
23237;DHT22;11787;52.018;8.570;2023-01-05T06:15:50;9.90;99.90
23237;DHT22;11787;52.018;8.570;2023-01-05T06:18:15;9.90;99.90
23237;DHT22;11787;52.018;8.570;2023-01-05T06:20:41;9.90;99.90
23237;DHT22;11787;52.018;8.570;2023-01-05T06:23:07;9.90;99.90
23237;DHT22;11787;52.018;8.570;2023-01-05T06:28:55;9.90;99.90
23237;DHT22;11787;52.018;8.570;2023-01-05T06:31:20;9.90;99.90
23237;DHT22;11787;52.018;8.570;2023-01-05T06:33:46;9.90;99.90
23237;DHT22;11787;52.018;8.570;2023-01-05T06:36:11;9.80;99.90
23237;DHT22;11787;52.018;8.570;2023-01-05T06:38:37;9.80;99.90
23237;DHT22;11787;52.018;8.570;2023-01-05T06:41:02;9.80;99.90
23237;DHT22;11787;52.018;8.570;2023-01-05T06:43:28;9.80;99.90
23237;DHT22;11787;52.018;8.570;2023-01-05T06:45:54;9.80;99.90
23237;DHT22;11787;52.018;8.570;2023-01-05T06:48:19;9.80;99.90
23237;DHT22;11787;52.018;8.570;2023-01-05T06:50:45;9.80;99.90
23237;DHT22;11787;52.018;8.570;2023-01-05T06:53:10;9.80;99.90
23237;DHT22;11787;52.018;8.570;2023-01-05T06:55:36;9.80;99.90
23237;DHT22;11787;52.018;8.570;2023-01-05T06:58:02;9.80;99.90
23237;DHT22;11787;52.018;8.570;2023-01-05T07:00:27;9.80;99.90
23237;DHT22;11787;52.018;8.570;2023-01-05T07:02:53;9.80;99.90
23237;DHT22;11787;52.018;8.570;2023-01-05T07:05:19;9.80;99.90
23237;DHT22;11787;52.018;8.570;2023-01-05T07:07:44;9.80;99.90
23237;DHT22;11787;52.018;8.570;2023-01-05T07:10:10;9.80;99.90
23237;DHT22;11787;52.018;8.570;2023-01-05T07:12:36;9.80;99.90
23237;DHT22;11787;52.018;8.570;2023-01-05T07:15:02;9.80;99.90
23237;DHT22;11787;52.018;8.570;2023-01-05T07:17:27;9.80;99.90
23237;DHT22;11787;52.018;8.570;2023-01-05T07:19:53;9.80;99.90
23237;DHT22;11787;52.018;8.570;2023-01-05T07:25:40;9.90;99.90
23237;DHT22;11787;52.018;8.570;2023-01-05T07:28:06;9.90;99.90
23237;DHT22;11787;52.018;8.570;2023-01-05T07:30:32;9.80;99.90
23237;DHT22;11787;52.018;8.570;2023-01-05T07:32:58;9.90;99.90
23237;DHT22;11787;52.018;8.570;2023-01-05T07:35:24;9.80;99.90
23237;DHT22;11787;52.018;8.570;2023-01-05T07:37:50;9.80;99.90
23237;DHT22;11787;52.018;8.570;2023-01-05T07:40:15;9.70;99.90
23237;DHT22;11787;52.018;8.570;2023-01-05T07:42:41;9.70;99.90
23237;DHT22;11787;52.018;8.570;2023-01-05T07:45:07;9.70;99.90
23237;DHT22;11787;52.018;8.570;2023-01-05T07:47:33;9.70;99.90
23237;DHT22;11787;52.018;8.570;2023-01-05T07:49:59;9.60;99.90
23237;DHT22;11787;52.018;8.570;2023-01-05T07:52:24;9.60;99.90
23237;DHT22;11787;52.018;8.570;2023-01-05T07:58:12;9.60;99.90
23237;DHT22;11787;52.018;8.570;2023-01-05T08:03:59;9.70;99.90
23237;DHT22;11787;52.018;8.570;2023-01-05T08:06:25;9.70;99.90
23237;DHT22;11787;52.018;8.570;2023-01-05T08:08:50;9.70;99.90
23237;DHT22;11787;52.018;8.570;2023-01-05T08:11:17;9.70;99.90
23237;DHT22;11787;52.018;8.570;2023-01-05T08:13:45;9.70;99.90
23237;DHT22;11787;52.018;8.570;2023-01-05T08:16:31;9.70;99.90
23237;DHT22;11787;52.018;8.570;2023-01-05T08:22:19;9.60;99.90
23237;DHT22;11787;52.018;8.570;2023-01-05T08:24:44;9.60;99.90
23237;DHT22;11787;52.018;8.570;2023-01-05T08:27:10;9.70;99.90
23237;DHT22;11787;52.018;8.570;2023-01-05T08:29:35;9.70;99.90
23237;DHT22;11787;52.018;8.570;2023-01-05T08:32:01;9.70;99.90
23237;DHT22;11787;52.018;8.570;2023-01-05T08:34:26;9.70;99.90
23237;DHT22;11787;52.018;8.570;2023-01-05T08:36:52;9.60;99.90
23237;DHT22;11787;52.018;8.570;2023-01-05T08:39:17;9.70;99.90
23237;DHT22;11787;52.018;8.570;2023-01-05T08:41:43;9.70;99.90
23237;DHT22;11787;52.018;8.570;2023-01-05T08:44:13;9.70;99.90
23237;DHT22;11787;52.018;8.570;2023-01-05T08:46:38;9.70;99.90
23237;DHT22;11787;52.018;8.570;2023-01-05T08:49:07;9.70;99.90
23237;DHT22;11787;52.018;8.570;2023-01-05T08:51:33;9.70;99.90
23237;DHT22;11787;52.018;8.570;2023-01-05T08:53:59;9.70;99.90
23237;DHT22;11787;52.018;8.570;2023-01-05T08:56:25;9.70;99.90
23237;DHT22;11787;52.018;8.570;2023-01-05T09:02:13;9.80;99.90
23237;DHT22;11787;52.018;8.570;2023-01-05T09:04:39;9.80;99.90
23237;DHT22;11787;52.018;8.570;2023-01-05T09:07:04;9.90;99.90
23237;DHT22;11787;52.018;8.570;2023-01-05T09:09:30;9.90;99.90
23237;DHT22;11787;52.018;8.570;2023-01-05T09:15:17;9.80;99.90
23237;DHT22;11787;52.018;8.570;2023-01-05T09:17:43;9.80;99.90
23237;DHT22;11787;52.018;8.570;2023-01-05T09:20:09;9.90;99.90
23237;DHT22;11787;52.018;8.570;2023-01-05T09:22:34;9.90;99.90
23237;DHT22;11787;52.018;8.570;2023-01-05T09:25:00;9.90;99.90
23237;DHT22;11787;52.018;8.570;2023-01-05T09:27:26;9.90;99.90
23237;DHT22;11787;52.018;8.570;2023-01-05T09:29:52;9.90;99.90
23237;DHT22;11787;52.018;8.570;2023-01-05T09:32:18;9.90;99.90
23237;DHT22;11787;52.018;8.570;2023-01-05T09:34:43;9.90;99.90
23237;DHT22;11787;52.018;8.570;2023-01-05T09:37:09;9.90;99.90
23237;DHT22;11787;52.018;8.570;2023-01-05T09:39:34;9.90;99.90
23237;DHT22;11787;52.018;8.570;2023-01-05T09:42:02;9.90;99.90
23237;DHT22;11787;52.018;8.570;2023-01-05T09:44:31;10.00;99.90
23237;DHT22;11787;52.018;8.570;2023-01-05T09:50:22;10.00;99.90
23237;DHT22;11787;52.018;8.570;2023-01-05T09:52:50;10.00;99.90
23237;DHT22;11787;52.018;8.570;2023-01-05T09:55:19;10.00;99.90
23237;DHT22;11787;52.018;8.570;2023-01-05T09:57:59;9.90;99.90
23237;DHT22;11787;52.018;8.570;2023-01-05T10:00:27;9.90;99.90
23237;DHT22;11787;52.018;8.570;2023-01-05T10:03:08;9.90;99.90
23237;DHT22;11787;52.018;8.570;2023-01-05T10:05:40;10.00;99.90
23237;DHT22;11787;52.018;8.570;2023-01-05T10:08:34;10.00;99.90
23237;DHT22;11787;52.018;8.570;2023-01-05T10:14:45;10.00;99.90
23237;DHT22;11787;52.018;8.570;2023-01-05T10:17:16;10.00;99.90
23237;DHT22;11787;52.018;8.570;2023-01-05T10:19:43;10.00;99.90
23237;DHT22;11787;52.018;8.570;2023-01-05T10:25:06;10.00;99.90
23237;DHT22;11787;52.018;8.570;2023-01-05T10:27:46;9.90;99.90
23237;DHT22;11787;52.018;8.570;2023-01-05T10:30:24;9.90;99.90
23237;DHT22;11787;52.018;8.570;2023-01-05T10:33:01;10.00;99.90
23237;DHT22;11787;52.018;8.570;2023-01-05T10:35:47;10.00;99.90
23237;DHT22;11787;52.018;8.570;2023-01-05T10:46:11;10.10;99.90
23237;DHT22;11787;52.018;8.570;2023-01-05T10:48:38;10.10;99.90
23237;DHT22;11787;52.018;8.570;2023-01-05T10:51:05;10.10;99.90
23237;DHT22;11787;52.018;8.570;2023-01-05T10:53:35;10.10;99.90
23237;DHT22;11787;52.018;8.570;2023-01-05T10:56:27;10.10;99.90
23237;DHT22;11787;52.018;8.570;2023-01-05T10:59:07;10.20;99.90
23237;DHT22;11787;52.018;8.570;2023-01-05T11:01:34;10.10;99.90
23237;DHT22;11787;52.018;8.570;2023-01-05T11:04:06;10.20;99.90
23237;DHT22;11787;52.018;8.570;2023-01-05T11:06:34;10.20;99.90
23237;DHT22;11787;52.018;8.570;2023-01-05T11:09:16;10.30;99.90
23237;DHT22;11787;52.018;8.570;2023-01-05T11:29:37;10.20;99.90
23237;DHT22;11787;52.018;8.570;2023-01-05T11:32:03;10.10;99.90
23237;DHT22;11787;52.018;8.570;2023-01-05T11:34:34;10.20;99.90
23237;DHT22;11787;52.018;8.570;2023-01-05T11:39:33;10.20;99.90
23237;DHT22;11787;52.018;8.570;2023-01-05T11:42:17;10.30;99.90
23237;DHT22;11787;52.018;8.570;2023-01-05T11:44:54;10.30;99.90
23237;DHT22;11787;52.018;8.570;2023-01-05T11:47:21;10.30;99.90
23237;DHT22;11787;52.018;8.570;2023-01-05T11:49:48;10.30;99.90
23237;DHT22;11787;52.018;8.570;2023-01-05T11:52:38;10.40;99.90
23237;DHT22;11787;52.018;8.570;2023-01-05T11:57:46;10.30;99.90
23237;DHT22;11787;52.018;8.570;2023-01-05T12:00:32;10.30;99.90
23237;DHT22;11787;52.018;8.570;2023-01-05T12:05:43;10.20;99.90
23237;DHT22;11787;52.018;8.570;2023-01-05T12:08:12;10.20;99.90
23237;DHT22;11787;52.018;8.570;2023-01-05T12:10:52;10.10;99.90
23237;DHT22;11787;52.018;8.570;2023-01-05T12:15:56;10.10;99.90
23237;DHT22;11787;52.018;8.570;2023-01-05T12:20:54;10.20;99.90
23237;DHT22;11787;52.018;8.570;2023-01-05T12:38:55;10.30;99.90
23237;DHT22;11787;52.018;8.570;2023-01-05T12:44:19;10.30;99.90
23237;DHT22;11787;52.018;8.570;2023-01-05T12:49:24;10.30;99.90
23237;DHT22;11787;52.018;8.570;2023-01-05T12:51:53;10.30;99.90
23237;DHT22;11787;52.018;8.570;2023-01-05T12:54:24;10.30;99.90
23237;DHT22;11787;52.018;8.570;2023-01-05T12:56:52;10.20;99.90
23237;DHT22;11787;52.018;8.570;2023-01-05T13:07:15;10.20;99.90
23237;DHT22;11787;52.018;8.570;2023-01-05T13:09:41;10.20;99.90
23237;DHT22;11787;52.018;8.570;2023-01-05T13:12:08;10.30;99.90
23237;DHT22;11787;52.018;8.570;2023-01-05T13:14:39;10.30;99.90
23237;DHT22;11787;52.018;8.570;2023-01-05T13:17:10;10.30;99.90
23237;DHT22;11787;52.018;8.570;2023-01-05T13:19:43;10.30;99.90
23237;DHT22;11787;52.018;8.570;2023-01-05T13:22:13;10.30;99.90
23237;DHT22;11787;52.018;8.570;2023-01-05T13:27:45;10.20;99.90
23237;DHT22;11787;52.018;8.570;2023-01-05T13:30:21;10.30;99.90
23237;DHT22;11787;52.018;8.570;2023-01-05T13:32:53;10.20;99.90
23237;DHT22;11787;52.018;8.570;2023-01-05T13:43:38;10.20;99.90
23237;DHT22;11787;52.018;8.570;2023-01-05T13:54:01;10.20;99.90
23237;DHT22;11787;52.018;8.570;2023-01-05T13:56:28;10.20;99.90
23237;DHT22;11787;52.018;8.570;2023-01-05T13:59:01;10.20;99.90
23237;DHT22;11787;52.018;8.570;2023-01-05T14:03:59;10.20;99.90
23237;DHT22;11787;52.018;8.570;2023-01-05T14:06:29;10.20;99.90
23237;DHT22;11787;52.018;8.570;2023-01-05T14:11:27;10.20;99.90
23237;DHT22;11787;52.018;8.570;2023-01-05T14:32:04;10.00;99.90
23237;DHT22;11787;52.018;8.570;2023-01-05T14:34:31;10.00;99.90
23237;DHT22;11787;52.018;8.570;2023-01-05T14:37:00;10.00;99.90
23237;DHT22;11787;52.018;8.570;2023-01-05T14:39:38;10.00;99.90
23237;DHT22;11787;52.018;8.570;2023-01-05T14:44:42;10.00;99.90
23237;DHT22;11787;52.018;8.570;2023-01-05T14:47:09;10.00;99.90
23237;DHT22;11787;52.018;8.570;2023-01-05T14:49:36;9.90;99.90
23237;DHT22;11787;52.018;8.570;2023-01-05T14:52:04;9.90;99.90
23237;DHT22;11787;52.018;8.570;2023-01-05T14:55:08;9.90;99.90
23237;DHT22;11787;52.018;8.570;2023-01-05T14:59:47;9.80;99.90
23237;DHT22;11787;52.018;8.570;2023-01-05T15:02:17;9.80;99.90
23237;DHT22;11787;52.018;8.570;2023-01-05T15:04:43;9.80;99.90
23237;DHT22;11787;52.018;8.570;2023-01-05T15:25:31;9.80;99.90
23237;DHT22;11787;52.018;8.570;2023-01-05T15:35:48;9.80;99.90
23237;DHT22;11787;52.018;8.570;2023-01-05T15:38:25;9.80;99.90
23237;DHT22;11787;52.018;8.570;2023-01-05T15:40:55;9.80;99.90
23237;DHT22;11787;52.018;8.570;2023-01-05T15:43:23;9.80;99.90
23237;DHT22;11787;52.018;8.570;2023-01-05T15:45:48;9.80;99.90
23237;DHT22;11787;52.018;8.570;2023-01-05T15:48:17;9.80;99.90
23237;DHT22;11787;52.018;8.570;2023-01-05T15:50:46;9.80;99.90
23237;DHT22;11787;52.018;8.570;2023-01-05T15:53:26;9.80;99.90
23237;DHT22;11787;52.018;8.570;2023-01-05T15:55:52;9.80;99.90
23237;DHT22;11787;52.018;8.570;2023-01-05T15:58:18;9.80;99.90
23237;DHT22;11787;52.018;8.570;2023-01-05T16:00:58;9.80;99.90
23237;DHT22;11787;52.018;8.570;2023-01-05T16:03:27;9.80;99.90
23237;DHT22;11787;52.018;8.570;2023-01-05T16:05:57;9.80;99.90
23237;DHT22;11787;52.018;8.570;2023-01-05T16:08:23;9.80;99.90
23237;DHT22;11787;52.018;8.570;2023-01-05T16:10:55;9.80;99.90
23237;DHT22;11787;52.018;8.570;2023-01-05T16:13:32;9.80;99.90
23237;DHT22;11787;52.018;8.570;2023-01-05T16:15:59;9.80;99.90
23237;DHT22;11787;52.018;8.570;2023-01-05T16:18:27;9.80;99.90
23237;DHT22;11787;52.018;8.570;2023-01-05T16:20:54;9.80;99.90
23237;DHT22;11787;52.018;8.570;2023-01-05T16:24:03;9.80;99.90
23237;DHT22;11787;52.018;8.570;2023-01-05T16:26:12;9.80;99.90
23237;DHT22;11787;52.018;8.570;2023-01-05T16:28:39;9.80;99.90
23237;DHT22;11787;52.018;8.570;2023-01-05T16:31:10;9.80;99.90
23237;DHT22;11787;52.018;8.570;2023-01-05T16:33:36;9.80;99.90
23237;DHT22;11787;52.018;8.570;2023-01-05T16:36:08;9.80;99.90
23237;DHT22;11787;52.018;8.570;2023-01-05T16:38:34;9.70;99.90
23237;DHT22;11787;52.018;8.570;2023-01-05T16:41:19;9.70;99.90
23237;DHT22;11787;52.018;8.570;2023-01-05T16:51:05;9.70;99.90
23237;DHT22;11787;52.018;8.570;2023-01-05T16:53:31;9.70;99.90
23237;DHT22;11787;52.018;8.570;2023-01-05T16:55:59;9.70;99.90
23237;DHT22;11787;52.018;8.570;2023-01-05T17:00:52;9.60;99.90
23237;DHT22;11787;52.018;8.570;2023-01-05T17:03:29;9.60;99.90
23237;DHT22;11787;52.018;8.570;2023-01-05T17:05:55;9.60;99.90
23237;DHT22;11787;52.018;8.570;2023-01-05T17:08:22;9.60;99.90
23237;DHT22;11787;52.018;8.570;2023-01-05T17:10:48;9.60;99.90
23237;DHT22;11787;52.018;8.570;2023-01-05T17:16:17;9.60;99.90
23237;DHT22;11787;52.018;8.570;2023-01-05T17:18:43;9.50;99.90
23237;DHT22;11787;52.018;8.570;2023-01-05T17:21:10;9.50;99.90
23237;DHT22;11787;52.018;8.570;2023-01-05T17:23:38;9.60;99.90
23237;DHT22;11787;52.018;8.570;2023-01-05T17:26:07;9.50;99.90
23237;DHT22;11787;52.018;8.570;2023-01-05T17:28:33;9.50;99.90
23237;DHT22;11787;52.018;8.570;2023-01-05T17:30:59;9.50;99.90
23237;DHT22;11787;52.018;8.570;2023-01-05T17:33:24;9.40;99.90
23237;DHT22;11787;52.018;8.570;2023-01-05T17:35:50;9.40;99.90
23237;DHT22;11787;52.018;8.570;2023-01-05T17:38:16;9.30;99.90
23237;DHT22;11787;52.018;8.570;2023-01-05T17:40:41;9.30;99.90
23237;DHT22;11787;52.018;8.570;2023-01-05T17:43:07;9.30;99.90
23237;DHT22;11787;52.018;8.570;2023-01-05T17:45:32;9.30;99.90
23237;DHT22;11787;52.018;8.570;2023-01-05T17:47:58;9.20;99.90
23237;DHT22;11787;52.018;8.570;2023-01-05T17:50:25;9.30;99.90
23237;DHT22;11787;52.018;8.570;2023-01-05T17:52:52;9.20;99.90
23237;DHT22;11787;52.018;8.570;2023-01-05T17:55:18;9.30;99.90
23237;DHT22;11787;52.018;8.570;2023-01-05T17:57:43;9.30;99.90
23237;DHT22;11787;52.018;8.570;2023-01-05T18:03:13;9.30;99.90
23237;DHT22;11787;52.018;8.570;2023-01-05T18:05:46;9.30;99.90
23237;DHT22;11787;52.018;8.570;2023-01-05T18:08:12;9.30;99.90
23237;DHT22;11787;52.018;8.570;2023-01-05T18:10:38;9.30;99.90
23237;DHT22;11787;52.018;8.570;2023-01-05T18:13:03;9.30;99.90
23237;DHT22;11787;52.018;8.570;2023-01-05T18:15:29;9.30;99.90
23237;DHT22;11787;52.018;8.570;2023-01-05T18:17:55;9.40;99.90
23237;DHT22;11787;52.018;8.570;2023-01-05T18:20:21;9.40;99.90
23237;DHT22;11787;52.018;8.570;2023-01-05T18:22:46;9.40;99.90
23237;DHT22;11787;52.018;8.570;2023-01-05T18:25:12;9.40;99.90
23237;DHT22;11787;52.018;8.570;2023-01-05T18:27:37;9.40;99.90
23237;DHT22;11787;52.018;8.570;2023-01-05T18:30:03;9.40;99.90
23237;DHT22;11787;52.018;8.570;2023-01-05T18:32:29;9.40;99.90
23237;DHT22;11787;52.018;8.570;2023-01-05T18:34:54;9.40;99.90
23237;DHT22;11787;52.018;8.570;2023-01-05T18:37:20;9.40;99.90
23237;DHT22;11787;52.018;8.570;2023-01-05T18:39:45;9.40;99.90
23237;DHT22;11787;52.018;8.570;2023-01-05T18:42:11;9.40;99.90
23237;DHT22;11787;52.018;8.570;2023-01-05T18:44:36;9.40;99.90
23237;DHT22;11787;52.018;8.570;2023-01-05T18:47:02;9.50;99.90
23237;DHT22;11787;52.018;8.570;2023-01-05T18:49:28;9.40;99.90
23237;DHT22;11787;52.018;8.570;2023-01-05T18:51:53;9.40;99.90
23237;DHT22;11787;52.018;8.570;2023-01-05T18:54:19;9.40;99.90
23237;DHT22;11787;52.018;8.570;2023-01-05T18:56:44;9.40;99.90
23237;DHT22;11787;52.018;8.570;2023-01-05T18:59:10;9.50;99.90
23237;DHT22;11787;52.018;8.570;2023-01-05T19:01:35;9.40;99.90
23237;DHT22;11787;52.018;8.570;2023-01-05T19:04:04;9.50;99.90
23237;DHT22;11787;52.018;8.570;2023-01-05T19:06:30;9.50;99.90
23237;DHT22;11787;52.018;8.570;2023-01-05T19:08:55;9.40;99.90
23237;DHT22;11787;52.018;8.570;2023-01-05T19:11:22;9.40;99.90
23237;DHT22;11787;52.018;8.570;2023-01-05T19:13:48;9.50;99.90
23237;DHT22;11787;52.018;8.570;2023-01-05T19:16:15;9.50;99.90
23237;DHT22;11787;52.018;8.570;2023-01-05T19:18:41;9.50;99.90
23237;DHT22;11787;52.018;8.570;2023-01-05T19:21:06;9.50;99.90
23237;DHT22;11787;52.018;8.570;2023-01-05T19:23:32;9.40;99.90
23237;DHT22;11787;52.018;8.570;2023-01-05T19:26:01;9.50;99.90
23237;DHT22;11787;52.018;8.570;2023-01-05T19:28:27;9.40;99.90
23237;DHT22;11787;52.018;8.570;2023-01-05T19:30:53;9.40;99.90
23237;DHT22;11787;52.018;8.570;2023-01-05T19:33:18;9.50;99.90
23237;DHT22;11787;52.018;8.570;2023-01-05T19:35:44;9.40;99.90
23237;DHT22;11787;52.018;8.570;2023-01-05T19:38:09;9.40;99.90
23237;DHT22;11787;52.018;8.570;2023-01-05T19:40:35;9.40;99.90
23237;DHT22;11787;52.018;8.570;2023-01-05T19:43:01;9.40;99.90
23237;DHT22;11787;52.018;8.570;2023-01-05T19:45:26;9.40;99.90
23237;DHT22;11787;52.018;8.570;2023-01-05T19:47:52;9.30;99.90
23237;DHT22;11787;52.018;8.570;2023-01-05T19:50:17;9.30;99.90